Portada
METAR-TAF:

METAR-TAF

Aeropuertos :

Aeropuerto de Albacete

Albacete, España

latitud: 38-57N, longitud: 001-51W, altitud: 702 m

Observación

El informe se hizo hace 59 minutos, a las 22:00 UTC
Viento 6 kt del norte
Temperatura 6°C
Humedad 93%
Presión 1026 hPa
Visibilidad 10 km o más
sin nubes por debajo de 1500 m y sin presencia de cumulonimbus.

METAR: LEAB 152200Z 36006KT CAVOK 06/05 Q1026 NOSIG

Hora: 23:59 (22:59 UTC)

Pronóstico

El informe se hizo hace 2 horas y 59 minutos, a las 20:00 UTC
Pronóstico válido del 15 a las 21 UTC al 16 a las 06 UTC
Viento 8 kt del noroeste
Visibilidad 10 km o más
Escasas nubes a una altura de 2500 ft
Evolucionando progresivamente
del 15 a las 21 UTC al 15 a las 23 UTC
Viento 4 kt con dirección variable

TAF: LEAB 152000Z 1521/1606 32008KT 9999 FEW025 BECMG 1521/1523 VRB04KT

Observaciones y pronósticos meteorológicos de más de 4000 aeropuertos (mensajes METAR y TAF).

Los puntos amarillos y rojos representan las estaciones disponibles.

Ponga el ratón en el punto deseado para ver el nombre de la estación.

Haga clic para ver las observaciones y los pronósticos meteorológicos.

Para cambiar el mapa : haga clic en los botones verdes con una cruz de color negro para hacer un zoom, en el botón verde con un guión para alejar o en las flechas verdes para mapas adyacentes.


METAR-TAF: